This is the latest recevied weather packets stored in our database for station/object K1AWR. If no packets are shown the sender has not sent any weather packets the latest 10 day(s).
| Time | Temp. | Humidity | Pressure | Rain* | Wind** | Luminosity | Snow |
|---|---|---|---|---|---|---|---|
| 1777823804 | 10.56° C | 44% | 1008.9 hPa | 0 mm | - | 183 W/m² | - |
| 1777823502 | 10.56° C | 44% | 1009 hPa | 0 mm | - | 127 W/m² | - |
| 1777823198 | 10.56° C | 44% | 1008.9 hPa | 0 mm | - | 125 W/m² | - |
| 1777822896 | 10.56° C | 43% | 1009.1 hPa | 0 mm | - | 139 W/m² | - |
| 1777822594 | 11.11° C | 42% | 1009 hPa | 0 mm | - | 112 W/m² | - |
| 1777822291 | 11.11° C | 43% | 1009 hPa | 0 mm | - | 254 W/m² | - |
| 1777821989 | 11.11° C | 42% | 1009.1 hPa | 0 mm | - | 221 W/m² | - |
| 1777821687 | 11.11° C | 43% | 1009.1 hPa | 0 mm | - | 258 W/m² | - |
| 1777821384 | 11.11° C | 44% | 1009.1 hPa | 0 mm | - | 209 W/m² | - |
| 1777821081 | 11.11° C | 44% | 1009 hPa | 0 mm | - | 175 W/m² | - |
| 1777820778 | 11.67° C | 46% | 1009 hPa | 0 mm | - | 265 W/m² | - |
| 1777820474 | 10.56° C | 47% | 1009.1 hPa | 0 mm | - | 443 W/m² | - |
| 1777820171 | 11.11° C | 43% | 1009.3 hPa | 0 mm | - | 210 W/m² | - |
| 1777819868 | 10.56° C | 44% | 1009.2 hPa | 0 mm | - | 133 W/m² | - |
| 1777819565 | 10.56° C | 49% | 1009.3 hPa | 0 mm | - | 428 W/m² | - |
| 1777819263 | 11.11° C | 45% | 1009.4 hPa | 0 mm | - | 325 W/m² | - |
| 1777818959 | 10.56° C | 49% | 1009.3 hPa | 0 mm | - | 211 W/m² | - |
| 1777818656 | 10° C | 49% | 1009.4 hPa | 0 mm | - | 209 W/m² | - |
| 1777818353 | 10° C | 50% | 1009.4 hPa | 0 mm | - | 288 W/m² | - |
| 1777818050 | 10° C | 50% | 1009.2 hPa | 0 mm | - | 211 W/m² | - |
| 1777817747 | 10° C | 52% | 1009.4 hPa | 0 mm | - | 244 W/m² | - |
| 1777817444 | 10° C | 51% | 1009.4 hPa | 0 mm | - | 306 W/m² | - |
| 1777817140 | 10° C | 52% | 1009.3 hPa | 0 mm | - | 320 W/m² | - |
| 1777816837 | 10° C | 51% | 1009.4 hPa | 0 mm | - | 245 W/m² | - |
| 1777816535 | 10° C | 52% | 1009.5 hPa | 0 mm | - | 561 W/m² | - |
* Rain latest hour (hover to see other rain measurements)
** Current wind speed in m/s (hover to see current wind gust speed)